Time;durP1;ratioP1;P1;durP2;ratioP2;P2;SDS_P1;SDS_P2;PMS_P1;PMS_P2;Temp;Humidity;BMP_temperature;BMP_pressure;BME280_temperature;BME280_humidity;BME280_pressure;Samples;Min_cycle;Max_cycle;Signal;HPM_P1;HPM_P2
2023/08/10 00:01:06;;;;;;;;;;;15.30;56.10;;;;;;5014704;28;20008;-68
2023/08/10 00:03:31;;;;;;;;;;;15.20;56.30;;;;;;5013552;28;20226;-69
2023/08/10 00:05:57;;;;;;;;;;;15.20;56.30;;;;;;5007013;28;19916;-69
2023/08/10 00:08:22;;;;;;;;;;;15.20;56.40;;;;;;4994061;28;20358;-69
2023/08/10 00:10:49;;;;;;;;;;;15.20;56.40;;;;;;4993553;28;20286;-69
2023/08/10 00:13:14;;;;;;;;;;;15.20;56.30;;;;;;5002862;28;20427;-69
2023/08/10 00:15:40;;;;;;;;;;;15.10;56.30;;;;;;5009640;28;19933;-69
2023/08/10 00:18:06;;;;;;;;;;;15.10;56.50;;;;;;5013100;28;19918;-69
2023/08/10 00:20:32;;;;;;;;;;;15.00;56.50;;;;;;5013247;28;20332;-69
2023/08/10 00:22:57;;;;;;;;;;;15.00;56.60;;;;;;5011978;28;19918;-70
2023/08/10 00:25:23;;;;;;;;;;;15.00;56.70;;;;;;5011765;28;20309;-69
2023/08/10 00:27:49;;;;;;;;;;;15.00;56.70;;;;;;5011796;28;19913;-69
2023/08/10 00:30:18;;;;;;;;;;;14.90;56.60;;;;;;4995336;28;20012;-69
2023/08/10 00:32:43;;;;;;;;;;;14.90;56.70;;;;;;5005256;28;19918;-69
2023/08/10 00:35:09;;;;;;;;;;;14.80;56.80;;;;;;5007902;28;19975;-70
2023/08/10 00:37:34;;;;;;;;;;;14.80;56.70;;;;;;5011236;28;19952;-69
2023/08/10 00:40:00;;;;;;;;;;;14.80;56.70;;;;;;5012179;28;20373;-69
2023/08/10 00:42:25;;;;;;;;;;;14.80;56.80;;;;;;5013026;28;19916;-69
2023/08/10 00:44:51;;;;;;;;;;;14.70;56.90;;;;;;5007774;28;20369;-69
2023/08/10 00:47:16;;;;;;;;;;;14.70;56.90;;;;;;4994831;28;20008;-70
2023/08/10 00:49:42;;;;;;;;;;;14.60;57.00;;;;;;5012393;28;19916;-69
2023/08/10 00:52:07;;;;;;;;;;;14.60;57.00;;;;;;5012401;28;20324;-69
2023/08/10 00:54:33;;;;;;;;;;;14.60;57.20;;;;;;5012393;28;19909;-69
2023/08/10 00:57:02;;;;;;;;;;;14.60;57.40;;;;;;5012760;28;20396;-70
2023/08/10 00:59:29;;;;;;;;;;;14.60;57.30;;;;;;5010104;28;20305;-70
2023/08/10 01:01:54;;;;;;;;;;;14.50;57.40;;;;;;4992947;28;20377;-69
2023/08/10 01:04:20;;;;;;;;;;;14.50;57.30;;;;;;5005933;28;19971;-71
2023/08/10 01:06:55;;;;;;;;;;;14.50;57.20;;;;;;5012407;28;19917;-69
2023/08/10 01:09:27;;;;;;;;;;;14.40;57.10;;;;;;5012276;28;19967;-69
2023/08/10 01:11:55;;;;;;;;;;;14.40;57.20;;;;;;5010251;28;19971;-69
2023/08/10 01:14:38;;;;;;;;;;;14.40;57.10;;;;;;5010793;28;19918;-69
2023/08/10 01:17:03;;;;;;;;;;;14.30;57.20;;;;;;5010612;28;19918;-69
2023/08/10 01:19:35;;;;;;;;;;;14.30;57.40;;;;;;5023278;28;19909;-69
2023/08/10 01:22:19;;;;;;;;;;;14.30;57.80;;;;;;5022338;28;19925;-69
2023/08/10 01:24:52;;;;;;;;;;;14.30;58.10;;;;;;5015215;28;20292;-69
2023/08/10 01:27:18;;;;;;;;;;;14.30;58.10;;;;;;5012047;28;20397;-69
2023/08/10 01:29:44;;;;;;;;;;;14.30;58.10;;;;;;5014523;28;20008;-75
2023/08/10 01:32:13;;;;;;;;;;;14.30;58.00;;;;;;5018895;28;19917;-76
2023/08/10 01:34:39;;;;;;;;;;;14.30;58.00;;;;;;5019527;28;19994;-75
2023/08/10 01:37:04;;;;;;;;;;;14.20;58.10;;;;;;5019569;28;20381;-76
2023/08/10 01:39:32;;;;;;;;;;;14.20;58.00;;;;;;5016095;28;19932;-74
2023/08/10 01:41:57;;;;;;;;;;;14.20;58.10;;;;;;4999830;28;19922;-76
2023/08/10 01:44:23;;;;;;;;;;;14.20;58.10;;;;;;5004907;28;19909;-75
2023/08/10 01:46:49;;;;;;;;;;;14.20;58.20;;;;;;5020435;28;20273;-76
2023/08/10 01:49:16;;;;;;;;;;;14.10;58.40;;;;;;5018677;28;19914;-76
2023/08/10 01:51:43;;;;;;;;;;;14.00;58.50;;;;;;5019036;28;19945;-75
2023/08/10 01:54:09;;;;;;;;;;;14.00;58.50;;;;;;5019089;28;19963;-75
2023/08/10 01:56:34;;;;;;;;;;;14.00;58.50;;;;;;5019093;28;20382;-76
2023/08/10 01:59:00;;;;;;;;;;;14.00;58.60;;;;;;5019471;28;19955;-76
2023/08/10 02:01:26;;;;;;;;;;;14.00;58.50;;;;;;5020549;28;19917;-75
2023/08/10 02:03:51;;;;;;;;;;;14.00;58.40;;;;;;5020008;28;19922;-75
2023/08/10 02:06:17;;;;;;;;;;;13.90;58.50;;;;;;5019594;28;19981;-75
2023/08/10 02:08:42;;;;;;;;;;;13.90;58.40;;;;;;5019631;28;19918;-76
2023/08/10 02:11:08;;;;;;;;;;;13.90;58.40;;;;;;5020114;28;19909;-77
2023/08/10 02:13:33;;;;;;;;;;;13.80;58.40;;;;;;5020215;28;19909;-76
2023/08/10 02:15:59;;;;;;;;;;;13.80;58.30;;;;;;5020449;28;19913;-75
2023/08/10 02:18:24;;;;;;;;;;;13.80;58.30;;;;;;5021263;28;19921;-75
2023/08/10 02:20:50;;;;;;;;;;;13.80;58.40;;;;;;5020756;28;19948;-76
2023/08/10 02:23:15;;;;;;;;;;;13.70;58.40;;;;;;5021403;28;19918;-75
2023/08/10 02:25:41;;;;;;;;;;;13.70;58.40;;;;;;5021253;28;20436;-76
2023/08/10 02:28:06;;;;;;;;;;;13.70;58.50;;;;;;5021044;28;19917;-76
2023/08/10 02:30:32;;;;;;;;;;;13.70;58.60;;;;;;5020861;28;19969;-76
2023/08/10 02:32:57;;;;;;;;;;;13.60;58.70;;;;;;5021108;28;19922;-74
2023/08/10 02:35:23;;;;;;;;;;;13.60;58.70;;;;;;5020400;28;19910;-76
2023/08/10 02:37:49;;;;;;;;;;;13.60;58.70;;;;;;5021785;28;19921;-75
2023/08/10 02:40:14;;;;;;;;;;;13.50;58.90;;;;;;5021314;28;20278;-76
2023/08/10 02:42:42;;;;;;;;;;;13.60;59.00;;;;;;5020932;28;19918;-75
2023/08/10 02:45:07;;;;;;;;;;;13.60;59.10;;;;;;5021348;28;19916;-75
2023/08/10 02:47:33;;;;;;;;;;;13.50;59.20;;;;;;5021500;28;20008;-76
2023/08/10 02:49:59;;;;;;;;;;;13.50;59.00;;;;;;5022719;28;19913;-75
2023/08/10 02:52:25;;;;;;;;;;;13.50;58.90;;;;;;5024247;28;19928;-75
2023/08/10 02:54:50;;;;;;;;;;;13.50;58.80;;;;;;5024385;28;19913;-75
2023/08/10 02:57:16;;;;;;;;;;;13.50;58.80;;;;;;5024394;28;19917;-75
2023/08/10 02:59:41;;;;;;;;;;;13.50;58.80;;;;;;5005919;28;19925;-75
2023/08/10 03:02:06;;;;;;;;;;;13.50;58.90;;;;;;5007208;28;19917;-76
2023/08/10 03:04:32;;;;;;;;;;;13.50;58.90;;;;;;5024155;28;20407;-76
2023/08/10 03:06:57;;;;;;;;;;;13.60;59.10;;;;;;5024203;28;20387;-75
2023/08/10 03:09:23;;;;;;;;;;;13.60;59.10;;;;;;5024340;28;19983;-74
2023/08/10 03:11:48;;;;;;;;;;;13.60;59.20;;;;;;5023763;28;19910;-75
2023/08/10 03:14:14;;;;;;;;;;;13.70;59.20;;;;;;5023817;28;19917;-76
2023/08/10 03:16:40;;;;;;;;;;;13.80;59.40;;;;;;5024638;28;19916;-75
2023/08/10 03:19:05;;;;;;;;;;;13.80;59.40;;;;;;5023909;28;19909;-75
2023/08/10 03:21:31;;;;;;;;;;;13.80;59.30;;;;;;5005074;28;19976;-75
2023/08/10 03:23:57;;;;;;;;;;;13.80;59.40;;;;;;5022707;28;19913;-75
2023/08/10 03:26:22;;;;;;;;;;;13.80;59.50;;;;;;5023395;28;20358;-75
2023/08/10 03:28:47;;;;;;;;;;;13.80;59.40;;;;;;5006123;28;19968;-75
2023/08/10 03:31:13;;;;;;;;;;;13.80;59.50;;;;;;5006631;28;19898;-75
2023/08/10 03:33:39;;;;;;;;;;;13.80;59.60;;;;;;5023230;28;19928;-74
2023/08/10 03:36:05;;;;;;;;;;;13.80;59.60;;;;;;5022402;28;19949;-75
2023/08/10 03:38:31;;;;;;;;;;;13.80;59.50;;;;;;5022715;28;19918;-75
2023/08/10 03:40:56;;;;;;;;;;;13.80;59.50;;;;;;5022670;28;19985;-75
2023/08/10 03:43:21;;;;;;;;;;;13.80;59.50;;;;;;5023124;28;20012;-75
2023/08/10 03:45:47;;;;;;;;;;;13.80;59.30;;;;;;5004978;28;19910;-75
2023/08/10 03:48:12;;;;;;;;;;;13.70;59.10;;;;;;5022375;28;19996;-75
2023/08/10 03:50:38;;;;;;;;;;;13.70;59.10;;;;;;5015385;28;19920;-70
2023/08/10 03:53:03;;;;;;;;;;;13.70;59.10;;;;;;5013497;28;20531;-69
2023/08/10 03:55:29;;;;;;;;;;;13.60;59.00;;;;;;5013770;28;19917;-69
2023/08/10 03:57:54;;;;;;;;;;;13.60;59.20;;;;;;5014064;28;19922;-69
2023/08/10 04:00:21;;;;;;;;;;;13.50;59.40;;;;;;5012336;28;19921;-70
2023/08/10 04:02:46;;;;;;;;;;;13.50;59.50;;;;;;5013229;28;20365;-70
2023/08/10 04:05:12;;;;;;;;;;;13.50;59.50;;;;;;5013536;28;19910;-69
2023/08/10 04:07:38;;;;;;;;;;;13.50;59.40;;;;;;5013574;28;20274;-69
2023/08/10 04:10:05;;;;;;;;;;;13.50;59.50;;;;;;5013217;28;19910;-70
2023/08/10 04:12:34;;;;;;;;;;;13.50;59.60;;;;;;5013663;28;19951;-70
2023/08/10 04:15:00;;;;;;;;;;;13.50;59.90;;;;;;5013483;28;20270;-70
2023/08/10 04:17:26;;;;;;;;;;;13.50;60.40;;;;;;4995594;28;19924;-70
2023/08/10 04:19:51;;;;;;;;;;;13.50;60.40;;;;;;5013056;28;20395;-70
2023/08/10 04:22:16;;;;;;;;;;;13.60;60.20;;;;;;4995627;28;19917;-71
2023/08/10 04:24:42;;;;;;;;;;;13.50;60.20;;;;;;5013107;28;20384;-70
2023/08/10 04:27:07;;;;;;;;;;;13.60;60.40;;;;;;5013112;28;20495;-71
2023/08/10 04:29:33;;;;;;;;;;;13.80;60.80;;;;;;5013335;28;20288;-70
2023/08/10 04:31:58;;;;;;;;;;;13.90;61.00;;;;;;5012972;28;19921;-70
2023/08/10 04:34:24;;;;;;;;;;;14.00;60.90;;;;;;5013022;28;19917;-70
2023/08/10 04:36:49;;;;;;;;;;;14.20;61.30;;;;;;5013080;28;20419;-70
2023/08/10 04:39:15;;;;;;;;;;;14.50;61.90;;;;;;5012942;28;19917;-70
2023/08/10 04:41:40;;;;;;;;;;;14.80;62.40;;;;;;4995079;28;19910;-71
2023/08/10 04:44:06;;;;;;;;;;;15.20;62.80;;;;;;4995340;28;20246;-70
2023/08/10 04:46:31;;;;;;;;;;;15.60;63.20;;;;;;4995013;28;19914;-70
2023/08/10 04:48:57;;;;;;;;;;;16.00;63.40;;;;;;5012769;28;19967;-70
2023/08/10 04:51:22;;;;;;;;;;;16.40;63.50;;;;;;5012829;28;19910;-70
2023/08/10 04:53:47;;;;;;;;;;;16.80;63.70;;;;;;5013101;28;20007;-70
2023/08/10 04:56:13;;;;;;;;;;;17.30;63.70;;;;;;5012594;28;20364;-71
2023/08/10 04:58:38;;;;;;;;;;;17.80;63.90;;;;;;5013186;28;19972;-71
2023/08/10 05:01:04;;;;;;;;;;;18.30;63.70;;;;;;5017426;28;19917;-75
2023/08/10 05:03:29;;;;;;;;;;;18.70;63.60;;;;;;5000714;28;19917;-75
2023/08/10 05:05:55;;;;;;;;;;;19.20;63.30;;;;;;5019398;28;19951;-75
2023/08/10 05:08:21;;;;;;;;;;;19.50;63.20;;;;;;5020996;28;19924;-75
2023/08/10 05:10:47;;;;;;;;;;;20.00;63.20;;;;;;5021648;28;20389;-75
2023/08/10 05:13:12;;;;;;;;;;;20.40;62.70;;;;;;5021924;28;19921;-75
2023/08/10 05:15:38;;;;;;;;;;;20.80;62.70;;;;;;5020850;28;20381;-76
2023/08/10 05:18:03;;;;;;;;;;;21.20;62.60;;;;;;5021054;28;19924;-76
2023/08/10 05:20:29;;;;;;;;;;;21.60;61.50;;;;;;5020786;28;19909;-77
2023/08/10 05:22:54;;;;;;;;;;;21.90;60.20;;;;;;5019786;28;19921;-77
2023/08/10 05:25:20;;;;;;;;;;;22.20;60.90;;;;;;5000385;28;19959;-76
2023/08/10 05:27:46;;;;;;;;;;;22.50;61.00;;;;;;5018173;28;19917;-77
2023/08/10 05:30:11;;;;;;;;;;;22.90;60.60;;;;;;5017937;28;19959;-78
2023/08/10 05:32:39;;;;;;;;;;;23.30;60.70;;;;;;5018533;28;19921;-78
2023/08/10 05:35:08;;;;;;;;;;;23.70;59.90;;;;;;5016683;28;19913;-78
2023/08/10 05:37:34;;;;;;;;;;;24.10;59.30;;;;;;5016908;28;20369;-78
2023/08/10 05:40:00;;;;;;;;;;;24.50;60.00;;;;;;5001754;28;19960;-78
2023/08/10 05:42:25;;;;;;;;;;;25.00;59.90;;;;;;5019802;28;19918;-78
2023/08/10 05:44:51;;;;;;;;;;;25.40;59.80;;;;;;5018852;28;19909;-78
2023/08/10 05:47:16;;;;;;;;;;;25.90;59.00;;;;;;5001736;28;20369;-75
2023/08/10 05:49:42;;;;;;;;;;;26.50;58.80;;;;;;5018700;28;20423;-79
2023/08/10 05:52:08;;;;;;;;;;;26.90;56.50;;;;;;5015862;28;19921;-70
2023/08/10 05:54:33;;;;;;;;;;;27.30;56.70;;;;;;5011692;28;19921;-68
2023/08/10 05:56:59;;;;;;;;;;;27.80;56.20;;;;;;5011688;28;19921;-69
2023/08/10 05:59:24;;;;;;;;;;;28.30;56.00;;;;;;4994327;28;19928;-69
2023/08/10 06:01:50;;;;;;;;;;;28.70;55.20;;;;;;5012019;28;20020;-69
2023/08/10 06:04:15;;;;;;;;;;;29.10;51.80;;;;;;5011617;28;19939;-70
2023/08/10 06:06:41;;;;;;;;;;;29.40;52.50;;;;;;5011616;28;19909;-69
2023/08/10 06:09:11;;;;;;;;;;;29.80;50.20;;;;;;5011821;28;20385;-70
2023/08/10 06:11:36;;;;;;;;;;;30.10;50.10;;;;;;5011685;28;19913;-70
2023/08/10 06:14:02;;;;;;;;;;;30.50;49.20;;;;;;5011518;28;20365;-70
2023/08/10 06:16:27;;;;;;;;;;;30.80;46.00;;;;;;4994248;28;19916;-70
2023/08/10 06:18:53;;;;;;;;;;;31.00;44.20;;;;;;5012336;28;19924;-70
2023/08/10 06:21:18;;;;;;;;;;;31.30;43.60;;;;;;5011461;28;20366;-70
2023/08/10 06:23:44;;;;;;;;;;;31.70;42.60;;;;;;5012367;28;20340;-70
2023/08/10 06:26:09;;;;;;;;;;;32.00;41.70;;;;;;5015355;28;19909;-70
2023/08/10 06:28:35;;;;;;;;;;;32.50;40.70;;;;;;5015802;28;20285;-70
2023/08/10 06:31:01;;;;;;;;;;;32.80;39.30;;;;;;5015182;28;20016;-70
2023/08/10 06:33:26;;;;;;;;;;;33.30;38.20;;;;;;5015838;28;19928;-70
2023/08/10 06:35:52;;;;;;;;;;;33.50;36.20;;;;;;5015221;28;20011;-70
2023/08/10 06:38:18;;;;;;;;;;;33.70;34.90;;;;;;5015433;28;19961;-71
2023/08/10 06:40:43;;;;;;;;;;;33.80;34.10;;;;;;5015109;28;19992;-70
2023/08/10 06:43:09;;;;;;;;;;;34.00;33.30;;;;;;5015908;28;20011;-70
2023/08/10 06:45:34;;;;;;;;;;;34.20;32.60;;;;;;5015067;28;20372;-70
2023/08/10 06:48:00;;;;;;;;;;;34.30;32.60;;;;;;5015401;28;19924;-70
2023/08/10 06:50:26;;;;;;;;;;;34.50;32.30;;;;;;5015123;28;19910;-70
2023/08/10 06:52:52;;;;;;;;;;;34.80;32.00;;;;;;5015183;28;19952;-70
2023/08/10 06:55:17;;;;;;;;;;;35.10;31.70;;;;;;5014897;28;19959;-71
2023/08/10 06:57:44;;;;;;;;;;;35.50;31.40;;;;;;5015074;28;19921;-71
2023/08/10 07:00:13;;;;;;;;;;;35.80;30.90;;;;;;4996931;28;19969;-70
2023/08/10 07:02:41;;;;;;;;;;;36.00;29.90;;;;;;5014225;28;21514;-70
2023/08/10 07:05:06;;;;;;;;;;;36.30;29.70;;;;;;4997074;28;19992;-70
2023/08/10 07:07:32;;;;;;;;;;;36.50;29.40;;;;;;4995266;28;19964;-70
2023/08/10 07:09:58;;;;;;;;;;;36.80;29.20;;;;;;5012805;28;19913;-72
2023/08/10 07:12:23;;;;;;;;;;;36.70;28.40;;;;;;5013686;28;19976;-70
2023/08/10 07:14:49;;;;;;;;;;;36.40;28.30;;;;;;5006791;28;20328;-70
2023/08/10 07:17:14;;;;;;;;;;;36.00;27.70;;;;;;5017532;28;19921;-70
2023/08/10 07:19:40;;;;;;;;;;;35.30;27.60;;;;;;5014517;28;19949;-70
2023/08/10 07:22:06;;;;;;;;;;;34.60;28.20;;;;;;5014251;28;19921;-71
2023/08/10 07:24:31;;;;;;;;;;;34.60;29.50;;;;;;4990719;28;20337;-69
2023/08/10 07:26:57;;;;;;;;;;;34.60;29.20;;;;;;5014055;28;19967;-69
2023/08/10 07:29:23;;;;;;;;;;;34.40;29.00;;;;;;5011631;28;19916;-70
2023/08/10 07:31:48;;;;;;;;;;;34.40;29.80;;;;;;5013292;28;20597;-70
2023/08/10 07:34:14;;;;;;;;;;;34.60;29.70;;;;;;5013853;28;19921;-70
2023/08/10 07:36:40;;;;;;;;;;;35.00;29.90;;;;;;5011230;28;19910;-71
2023/08/10 07:39:05;;;;;;;;;;;35.30;29.30;;;;;;4995592;28;19913;-70
2023/08/10 07:41:31;;;;;;;;;;;35.50;28.80;;;;;;5013587;28;19910;-70
2023/08/10 07:43:56;;;;;;;;;;;35.40;28.50;;;;;;5012482;28;19967;-70
2023/08/10 07:46:21;;;;;;;;;;;35.60;28.90;;;;;;4996061;28;20369;-71
2023/08/10 07:48:47;;;;;;;;;;;36.00;28.80;;;;;;5012639;28;19925;-70
2023/08/10 07:51:13;;;;;;;;;;;36.50;28.90;;;;;;5012528;28;20555;-70
2023/08/10 07:53:38;;;;;;;;;;;37.10;28.50;;;;;;5009895;28;20353;-70
2023/08/10 07:56:03;;;;;;;;;;;37.20;26.70;;;;;;5013499;28;20312;-70
2023/08/10 07:58:29;;;;;;;;;;;37.00;26.30;;;;;;4994856;28;19923;-70
2023/08/10 08:00:55;;;;;;;;;;;36.80;25.60;;;;;;4976464;28;20415;-70
2023/08/10 08:03:21;;;;;;;;;;;36.30;25.70;;;;;;4992498;28;19945;-70
2023/08/10 08:05:46;;;;;;;;;;;35.90;26.10;;;;;;5011042;28;19913;-70
2023/08/10 08:08:11;;;;;;;;;;;35.70;26.40;;;;;;5013682;28;20375;-70
2023/08/10 08:10:37;;;;;;;;;;;35.30;26.50;;;;;;4994629;28;20293;-69
2023/08/10 08:13:03;;;;;;;;;;;35.10;26.90;;;;;;5013468;28;20076;-69
2023/08/10 08:15:29;;;;;;;;;;;34.70;27.20;;;;;;5013234;28;19914;-70
2023/08/10 08:18:13;;;;;;;;;;;34.30;27.50;;;;;;4993092;28;19925;-69
2023/08/10 08:20:38;;;;;;;;;;;33.80;27.70;;;;;;4994649;28;19917;-69
2023/08/10 08:23:04;;;;;;;;;;;33.30;28.00;;;;;;4995626;28;19925;-69
2023/08/10 08:25:29;;;;;;;;;;;33.20;28.80;;;;;;5012994;28;20277;-68
2023/08/10 08:27:55;;;;;;;;;;;33.50;28.90;;;;;;5012223;28;19925;-68
2023/08/10 08:30:20;;;;;;;;;;;34.00;28.10;;;;;;5010999;28;19913;-69
2023/08/10 08:32:46;;;;;;;;;;;34.50;27.70;;;;;;5013149;28;20024;-69
2023/08/10 08:35:11;;;;;;;;;;;35.20;26.50;;;;;;4994795;28;19914;-70
2023/08/10 08:37:37;;;;;;;;;;;35.60;25.60;;;;;;5013046;28;19917;-69
2023/08/10 08:40:02;;;;;;;;;;;35.80;24.70;;;;;;5011413;28;19943;-69
2023/08/10 08:42:28;;;;;;;;;;;36.00;25.00;;;;;;5012920;28;19928;-69
2023/08/10 08:44:54;;;;;;;;;;;36.30;25.00;;;;;;5009626;28;19921;-70
2023/08/10 08:47:20;;;;;;;;;;;36.80;24.90;;;;;;5012018;28;19925;-69
2023/08/10 08:49:46;;;;;;;;;;;37.30;24.80;;;;;;5012680;28;19913;-72
2023/08/10 08:52:12;;;;;;;;;;;37.70;23.90;;;;;;5012945;28;19918;-70
2023/08/10 08:54:37;;;;;;;;;;;38.20;24.00;;;;;;5012642;28;19913;-70
2023/08/10 08:57:03;;;;;;;;;;;38.70;23.60;;;;;;5012532;28;19917;-70
2023/08/10 08:59:28;;;;;;;;;;;39.10;22.70;;;;;;5012398;28;19941;-70
2023/08/10 09:01:54;;;;;;;;;;;38.90;22.80;;;;;;5008869;28;19917;-70
2023/08/10 09:04:20;;;;;;;;;;;38.50;22.50;;;;;;4992725;28;19917;-70
2023/08/10 09:06:45;;;;;;;;;;;37.80;22.40;;;;;;4992985;28;19913;-69
2023/08/10 09:09:11;;;;;;;;;;;37.40;22.70;;;;;;4992811;28;19910;-69
2023/08/10 09:11:36;;;;;;;;;;;37.40;22.30;;;;;;4992541;28;19945;-69
2023/08/10 09:14:08;;;;;;;;;;;37.40;22.80;;;;;;4992660;28;19920;-70
2023/08/10 09:16:36;;;;;;;;;;;37.80;22.80;;;;;;5001092;28;19918;-71
2023/08/10 09:19:02;;;;;;;;;;;38.30;22.40;;;;;;5011476;28;19996;-71
2023/08/10 09:21:30;;;;;;;;;;;38.80;21.90;;;;;;5012078;28;20003;-71
2023/08/10 09:23:56;;;;;;;;;;;39.20;21.60;;;;;;5011575;28;19924;-71
2023/08/10 09:26:22;;;;;;;;;;;39.30;20.90;;;;;;5011969;28;20361;-72
2023/08/10 09:28:48;;;;;;;;;;;39.50;21.10;;;;;;5011342;28;19969;-70
2023/08/10 09:31:20;;;;;;;;;;;39.40;21.00;;;;;;5012049;28;19910;-71
2023/08/10 09:33:52;;;;;;;;;;;39.50;21.20;;;;;;5012511;28;19944;-70
2023/08/10 09:36:21;;;;;;;;;;;39.70;20.70;;;;;;4993331;28;19913;-71
2023/08/10 09:38:50;;;;;;;;;;;39.80;20.70;;;;;;5011995;28;19917;-80
2023/08/10 09:41:15;;;;;;;;;;;40.00;20.90;;;;;;5021723;28;19909;-79
2023/08/10 09:43:42;;;;;;;;;;;40.10;20.60;;;;;;5001242;28;19921;-79
2023/08/10 09:46:09;;;;;;;;;;;40.10;20.50;;;;;;5016293;28;19956;-79
2023/08/10 09:48:35;;;;;;;;;;;39.90;20.60;;;;;;5015454;28;19926;-78
2023/08/10 09:51:05;;;;;;;;;;;39.70;20.40;;;;;;5015001;28;19917;-79
2023/08/10 09:53:30;;;;;;;;;;;39.50;20.60;;;;;;5019984;28;19921;-79
2023/08/10 09:55:56;;;;;;;;;;;39.40;20.70;;;;;;5038897;28;19916;-79
2023/08/10 09:58:21;;;;;;;;;;;39.50;20.80;;;;;;5025431;28;20059;-78
2023/08/10 10:00:49;;;;;;;;;;;39.50;20.60;;;;;;5001283;28;19913;-78
2023/08/10 10:03:19;;;;;;;;;;;39.30;20.90;;;;;;4999688;28;20285;-78
2023/08/10 10:05:44;;;;;;;;;;;39.00;20.60;;;;;;5018238;28;20016;-77
2023/08/10 10:08:11;;;;;;;;;;;38.30;20.40;;;;;;5017929;28;19913;-80
2023/08/10 10:10:37;;;;;;;;;;;37.60;20.90;;;;;;5015784;28;19995;-77
2023/08/10 10:13:05;;;;;;;;;;;36.90;21.40;;;;;;5014880;28;19921;-77
2023/08/10 10:15:31;;;;;;;;;;;36.50;21.70;;;;;;5017249;28;19909;-78
2023/08/10 10:17:57;;;;;;;;;;;36.30;22.10;;;;;;5016555;28;19924;-77
2023/08/10 10:20:23;;;;;;;;;;;36.50;22.40;;;;;;5016684;28;20365;-78
2023/08/10 10:22:48;;;;;;;;;;;36.80;22.50;;;;;;4999895;28;19960;-78
2023/08/10 10:25:17;;;;;;;;;;;37.20;22.50;;;;;;5017519;28;19971;-79
2023/08/10 10:27:46;;;;;;;;;;;37.60;21.90;;;;;;5017805;28;20327;-78
2023/08/10 10:30:15;;;;;;;;;;;37.80;21.40;;;;;;5013757;28;19944;-76
2023/08/10 10:32:48;;;;;;;;;;;38.20;21.80;;;;;;5017762;28;19924;-76
2023/08/10 10:35:15;;;;;;;;;;;38.30;21.40;;;;;;5018362;28;19919;-77
2023/08/10 10:37:40;;;;;;;;;;;38.70;21.30;;;;;;5019548;28;19940;-76
2023/08/10 10:40:21;;;;;;;;;;;38.80;21.20;;;;;;5017464;28;20008;-77
2023/08/10 10:43:01;;;;;;;;;;;39.10;21.30;;;;;;5020460;28;20080;-79
2023/08/10 10:45:27;;;;;;;;;;;39.30;21.00;;;;;;5018114;28;19972;-78
2023/08/10 10:47:54;;;;;;;;;;;39.60;20.80;;;;;;5015300;28;19921;-77
2023/08/10 10:50:20;;;;;;;;;;;39.80;20.70;;;;;;5020088;28;19914;-78
2023/08/10 10:52:59;;;;;;;;;;;39.80;20.30;;;;;;5020249;28;20328;-78
2023/08/10 10:55:26;;;;;;;;;;;39.80;19.70;;;;;;5020832;28;20456;-79
2023/08/10 10:57:52;;;;;;;;;;;39.50;19.50;;;;;;5019134;28;19929;-77
2023/08/10 11:00:19;;;;;;;;;;;39.00;19.10;;;;;;5017735;28;19921;-76
2023/08/10 11:02:45;;;;;;;;;;;38.70;19.80;;;;;;5018937;28;19917;-78
2023/08/10 11:05:12;;;;;;;;;;;38.60;20.20;;;;;;5017533;28;19960;-78
2023/08/10 11:07:44;;;;;;;;;;;38.80;20.10;;;;;;5000633;28;20435;-77
2023/08/10 11:10:10;;;;;;;;;;;38.80;20.00;;;;;;5016272;28;19913;-77
2023/08/10 11:12:39;;;;;;;;;;;38.80;20.20;;;;;;5015214;28;19918;-77
2023/08/10 11:15:06;;;;;;;;;;;39.00;20.30;;;;;;5016607;28;19914;-77
2023/08/10 11:17:32;;;;;;;;;;;39.10;20.50;;;;;;5017778;28;19918;-79
2023/08/10 11:19:57;;;;;;;;;;;39.20;20.60;;;;;;5015461;28;20274;-79
2023/08/10 11:22:23;;;;;;;;;;;39.30;20.20;;;;;;5016489;28;20433;-75
2023/08/10 11:24:48;;;;;;;;;;;39.20;19.90;;;;;;5015978;28;20000;-77
2023/08/10 11:27:14;;;;;;;;;;;39.00;20.10;;;;;;5014370;28;20345;-79
2023/08/10 11:29:39;;;;;;;;;;;39.10;20.40;;;;;;4999799;28;19932;-78
2023/08/10 11:32:05;;;;;;;;;;;39.10;20.40;;;;;;5017841;28;19928;-78
2023/08/10 11:34:33;;;;;;;;;;;39.00;19.90;;;;;;5017208;28;20373;-77
2023/08/10 11:36:58;;;;;;;;;;;39.00;19.80;;;;;;4999366;28;19971;-75
2023/08/10 11:39:24;;;;;;;;;;;38.90;19.90;;;;;;5017518;28;19918;-78
2023/08/10 11:41:50;;;;;;;;;;;38.80;19.10;;;;;;5017199;28;20000;-78
2023/08/10 11:44:26;;;;;;;;;;;38.50;19.50;;;;;;5017696;28;19909;-78
2023/08/10 11:46:53;;;;;;;;;;;38.20;19.60;;;;;;4999662;28;19924;-78
2023/08/10 11:49:18;;;;;;;;;;;37.90;19.70;;;;;;5019516;28;20420;-78
2023/08/10 11:51:44;;;;;;;;;;;37.70;19.60;;;;;;5020716;28;19959;-79
2023/08/10 11:54:09;;;;;;;;;;;37.50;20.00;;;;;;5021448;28;20008;-79
2023/08/10 11:56:44;;;;;;;;;;;37.50;20.10;;;;;;5020142;28;20292;-78
2023/08/10 11:59:11;;;;;;;;;;;37.30;20.40;;;;;;5021174;28;19917;-78
2023/08/10 12:02:06;;;;;;;;;;;37.40;20.60;;;;;;5000102;28;19917;-78
2023/08/10 12:04:31;;;;;;;;;;;37.30;20.60;;;;;;4997803;28;19920;-76
2023/08/10 12:06:57;;;;;;;;;;;37.40;20.80;;;;;;5031050;28;19905;-79
2023/08/10 12:09:25;;;;;;;;;;;37.40;20.40;;;;;;5020180;28;20320;-79
2023/08/10 12:11:53;;;;;;;;;;;37.30;20.50;;;;;;5017522;28;19979;-77
2023/08/10 12:14:19;;;;;;;;;;;37.20;20.30;;;;;;5016390;28;19941;-78
2023/08/10 12:16:45;;;;;;;;;;;37.00;20.40;;;;;;5015809;28;19943;-78
2023/08/10 12:19:10;;;;;;;;;;;36.80;20.70;;;;;;5016428;28;20257;-77
2023/08/10 12:21:36;;;;;;;;;;;36.80;21.10;;;;;;5016049;28;19913;-78
2023/08/10 12:24:01;;;;;;;;;;;36.80;21.10;;;;;;4998154;28;20024;-77
2023/08/10 12:26:27;;;;;;;;;;;36.80;21.20;;;;;;4997747;28;20284;-78
2023/08/10 12:28:52;;;;;;;;;;;36.80;21.60;;;;;;4999379;28;19917;-77
2023/08/10 12:31:19;;;;;;;;;;;36.90;21.50;;;;;;5014253;28;20328;-76
2023/08/10 12:33:44;;;;;;;;;;;36.80;20.80;;;;;;5000545;28;20313;-79
2023/08/10 12:36:10;;;;;;;;;;;36.50;20.70;;;;;;5017875;28;19916;-78
2023/08/10 12:38:36;;;;;;;;;;;36.20;21.00;;;;;;5001613;28;20395;-78
2023/08/10 12:41:01;;;;;;;;;;;35.80;21.50;;;;;;5015937;28;19913;-78
2023/08/10 12:43:27;;;;;;;;;;;35.60;21.80;;;;;;5015998;28;19919;-76
2023/08/10 12:45:53;;;;;;;;;;;35.70;22.40;;;;;;5015612;28;19913;-77
2023/08/10 12:48:19;;;;;;;;;;;35.80;22.30;;;;;;5016788;28;19917;-77
2023/08/10 12:50:44;;;;;;;;;;;35.90;22.20;;;;;;4997568;28;19913;-75
2023/08/10 12:53:10;;;;;;;;;;;36.10;22.40;;;;;;5015337;28;19922;-79
2023/08/10 12:55:44;;;;;;;;;;;36.30;22.20;;;;;;5014516;28;20358;-78
2023/08/10 12:58:14;;;;;;;;;;;36.30;21.50;;;;;;5015483;28;20017;-77
2023/08/10 13:00:39;;;;;;;;;;;36.20;21.30;;;;;;4996496;28;19929;-77
2023/08/10 13:03:05;;;;;;;;;;;36.00;21.80;;;;;;5020337;28;19921;-77
2023/08/10 13:05:30;;;;;;;;;;;36.00;21.80;;;;;;4985706;28;20436;-78
2023/08/10 13:07:56;;;;;;;;;;;36.00;22.10;;;;;;4995090;28;19924;-77
2023/08/10 13:10:23;;;;;;;;;;;36.10;22.40;;;;;;4996223;28;19921;-77
2023/08/10 13:12:49;;;;;;;;;;;36.20;22.20;;;;;;5012826;28;19918;-76
2023/08/10 13:15:15;;;;;;;;;;;36.10;22.20;;;;;;5015502;28;19913;-78
2023/08/10 13:17:40;;;;;;;;;;;36.00;21.90;;;;;;5016147;28;20277;-77
2023/08/10 13:20:07;;;;;;;;;;;35.80;22.10;;;;;;5013349;28;20060;-78
2023/08/10 13:22:33;;;;;;;;;;;35.50;22.00;;;;;;5014397;28;19917;-77
2023/08/10 13:24:59;;;;;;;;;;;35.20;22.20;;;;;;4990772;28;19914;-77
2023/08/10 13:27:25;;;;;;;;;;;35.00;22.60;;;;;;5012444;28;19993;-75
2023/08/10 13:29:51;;;;;;;;;;;35.00;23.00;;;;;;5013108;28;19917;-76
2023/08/10 13:32:17;;;;;;;;;;;35.10;23.00;;;;;;5019847;28;19917;-75
2023/08/10 13:34:43;;;;;;;;;;;35.20;22.90;;;;;;5020041;28;19985;-77
2023/08/10 13:37:11;;;;;;;;;;;35.10;22.90;;;;;;5011214;28;20016;-75
2023/08/10 13:39:36;;;;;;;;;;;35.00;22.30;;;;;;5006117;28;19918;-76
2023/08/10 13:42:02;;;;;;;;;;;34.80;22.10;;;;;;5013500;28;20001;-76
2023/08/10 13:44:27;;;;;;;;;;;34.50;22.80;;;;;;5011662;28;19921;-76
2023/08/10 13:46:53;;;;;;;;;;;34.40;23.00;;;;;;5014986;28;19917;-76
2023/08/10 13:49:18;;;;;;;;;;;34.50;23.30;;;;;;5033346;28;20280;-77
2023/08/10 13:51:44;;;;;;;;;;;34.80;23.10;;;;;;5016013;28;19913;-77
2023/08/10 13:54:10;;;;;;;;;;;34.80;22.80;;;;;;5013458;28;19959;-77
2023/08/10 13:56:54;;;;;;;;;;;34.60;23.10;;;;;;5012543;28;19916;-77
2023/08/10 13:59:19;;;;;;;;;;;34.50;23.50;;;;;;4993726;28;19918;-77
2023/08/10 14:01:45;;;;;;;;;;;34.50;23.70;;;;;;4993713;28;20270;-77
2023/08/10 14:04:11;;;;;;;;;;;34.60;23.60;;;;;;4993573;28;19910;-77
2023/08/10 14:06:37;;;;;;;;;;;34.60;23.70;;;;;;4976184;28;19943;-76
2023/08/10 14:09:03;;;;;;;;;;;34.70;23.60;;;;;;4996099;28;19913;-75
2023/08/10 14:11:28;;;;;;;;;;;34.50;23.50;;;;;;4990473;28;19956;-73